Time;durP1;ratioP1;P1;durP2;ratioP2;P2;SDS_P1;SDS_P2;PMS_P1;PMS_P2;Temp;Humidity;BMP_temperature;BMP_pressure;BME280_temperature;BME280_humidity;BME280_pressure;Samples;Min_cycle;Max_cycle;Signal;HPM_P1;HPM_P2
2021/11/18 09:12:00;;;;;;;15.90;7.85;;;;;;;;;;12801293;23;20040;-88
2021/11/18 09:17:37;;;;;;;19.13;8.90;;;;;;;;;;12808725;23;20007;-85
2021/11/18 09:28:27;;;;;;;17.95;7.88;;;;;;;;;;12801982;23;20020;-86
2021/11/18 09:39:28;;;;;;;18.20;7.35;;;;;;;;;;12801710;23;20001;-86
2021/11/18 09:50:26;;;;;;;14.07;6.93;;;;;;;;;;12808663;23;20013;-85
2021/11/18 09:55:49;;;;;;;16.15;6.82;;;;;;;;;;12806867;23;20012;-84
2021/11/18 10:01:38;;;;;;;14.40;7.45;;;;;;;;;;12557972;23;20077;-85
2021/11/18 10:06:41;;;;;;;15.48;7.22;;;;;;;;;;12505031;23;20082;-85
2021/11/18 10:12:21;;;;;;;16.17;7.10;;;;;;;;;;12564561;23;20007;-85
2021/11/18 10:17:52;;;;;;;15.43;7.72;;;;;;;;;;12480012;23;20071;-85
2021/11/18 10:23:46;;;;;;;15.50;6.85;;;;;;;;;;12464522;23;20608;-86
2021/11/18 10:29:09;;;;;;;13.75;7.10;;;;;;;;;;12508389;23;20025;-83
2021/11/18 10:40:40;;;;;;;15.43;7.80;;;;;;;;;;12624757;23;20015;-86
2021/11/18 10:51:41;;;;;;;14.60;8.27;;;;;;;;;;12813476;23;20005;-85
2021/11/18 11:08:57;;;;;;;16.67;8.10;;;;;;;;;;12811706;23;20065;-85
2021/11/18 11:25:53;;;;;;;16.73;7.97;;;;;;;;;;12559098;23;20027;-88
2021/11/18 11:31:37;;;;;;;19.98;9.20;;;;;;;;;;12554275;23;20456;-86
2021/11/18 11:37:17;;;;;;;20.17;9.35;;;;;;;;;;12380665;23;20050;-86
2021/11/18 11:53:38;;;;;;;18.33;7.93;;;;;;;;;;12843777;23;20017;-87
2021/11/18 12:32:15;;;;;;;12.35;5.70;;;;;;;;;;12855227;23;20027;-86
2021/11/18 12:37:25;;;;;;;12.52;5.82;;;;;;;;;;12907828;23;20030;-86
2021/11/18 12:42:32;;;;;;;15.43;6.63;;;;;;;;;;12888083;23;20414;-86
2021/11/18 12:47:39;;;;;;;14.13;6.80;;;;;;;;;;12889736;23;20009;-82
2021/11/18 12:52:42;;;;;;;14.98;5.35;;;;;;;;;;12893804;23;20015;-86
2021/11/18 12:57:52;;;;;;;13.00;4.75;;;;;;;;;;12889010;23;20004;-87
2021/11/18 13:02:55;;;;;;;12.68;4.78;;;;;;;;;;12878072;23;20004;-86
2021/11/18 13:07:58;;;;;;;11.52;4.82;;;;;;;;;;12880460;23;20075;-86
2021/11/18 13:13:04;;;;;;;14.60;4.28;;;;;;;;;;12888253;23;20000;-85
2021/11/18 13:18:31;;;;;;;15.73;4.85;;;;;;;;;;12897618;23;20073;-84
2021/11/18 13:23:45;;;;;;;9.88;4.45;;;;;;;;;;12893041;23;20020;-86
2021/11/18 13:29:18;;;;;;;15.48;4.03;;;;;;;;;;12897860;23;20317;-85
2021/11/18 13:34:25;;;;;;;10.98;3.92;;;;;;;;;;12893856;23;20009;-85
2021/11/18 13:39:41;;;;;;;9.18;4.05;;;;;;;;;;12894316;23;20001;-86
2021/11/18 13:44:42;;;;;;;9.02;4.15;;;;;;;;;;12894883;23;20005;-84
2021/11/18 13:49:43;;;;;;;;;;;;;;;;;;12897400;23;20008;-85
2021/11/18 13:54:50;;;;;;;12.35;5.90;;;;;;;;;;12890363;23;19908;-84
2021/11/18 13:59:57;;;;;;;12.93;5.15;;;;;;;;;;12883145;23;20442;-84
2021/11/18 14:05:04;;;;;;;11.85;4.60;;;;;;;;;;12885835;23;20031;-84
2021/11/18 14:10:07;;;;;;;10.98;4.22;;;;;;;;;;12883827;22;20020;-83
2021/11/18 14:15:16;;;;;;;12.30;3.72;;;;;;;;;;12856174;23;20001;-84
2021/11/18 14:20:59;;;;;;;8.60;3.35;;;;;;;;;;12850320;23;20013;-83
2021/11/18 14:26:22;;;;;;;10.50;3.65;;;;;;;;;;12843543;23;20009;-83
2021/11/18 14:37:49;;;;;;;13.30;3.85;;;;;;;;;;12878967;23;20004;-84
2021/11/18 14:42:50;;;;;;;10.55;3.45;;;;;;;;;;12545343;23;20007;-84
2021/11/18 14:47:53;;;;;;;;;;;;;;;;;;12787211;23;20016;-85
2021/11/18 14:53:02;;;;;;;8.63;3.30;;;;;;;;;;12850373;23;19925;-84
2021/11/18 14:58:05;;;;;;;12.35;3.83;;;;;;;;;;12850524;23;20090;-84
2021/11/18 15:03:08;;;;;;;14.43;4.18;;;;;;;;;;12862784;23;20009;-85
2021/11/18 15:08:10;;;;;;;11.30;3.80;;;;;;;;;;12861989;23;20012;-85
2021/11/18 15:13:35;;;;;;;10.60;3.50;;;;;;;;;;12859164;23;20012;-85
2021/11/18 15:24:09;;;;;;;12.93;3.60;;;;;;;;;;12882517;23;20012;-84
2021/11/18 15:29:45;;;;;;;14.23;3.80;;;;;;;;;;12845790;23;20120;-85
2021/11/18 15:34:56;;;;;;;11.65;3.45;;;;;;;;;;12863908;23;20087;-85
2021/11/18 15:40:13;;;;;;;8.68;3.20;;;;;;;;;;12864260;23;20005;-86
2021/11/18 15:45:56;;;;;;;10.02;3.47;;;;;;;;;;12736519;23;20025;-87
2021/11/18 15:51:01;;;;;;;9.50;3.72;;;;;;;;;;12858136;23;20055;-85
2021/11/18 16:02:00;;;;;;;10.88;3.42;;;;;;;;;;12882673;23;20491;-82
2021/11/18 16:36:07;;;;;;;14.00;4.80;;;;;;;;;;12878875;23;19997;-91
2021/11/18 17:19:45;;;;;;;9.70;4.03;;;;;;;;;;12900308;23;20317;-82
2021/11/18 17:24:50;;;;;;;9.23;3.90;;;;;;;;;;12871630;23;20061;-83
2021/11/18 17:29:58;;;;;;;10.82;4.28;;;;;;;;;;12906972;22;20048;-83
2021/11/18 17:35:02;;;;;;;14.32;4.43;;;;;;;;;;12866629;23;20011;-84
2021/11/18 17:40:34;;;;;;;13.80;4.53;;;;;;;;;;12900342;23;20000;-86
2021/11/18 17:46:01;;;;;;;14.10;4.88;;;;;;;;;;12886648;23;20008;-86
2021/11/18 17:51:04;;;;;;;9.77;3.90;;;;;;;;;;12851539;23;19997;-84
2021/11/18 17:56:06;;;;;;;17.77;5.00;;;;;;;;;;12857314;22;20008;-87
2021/11/18 18:01:16;;;;;;;9.63;3.53;;;;;;;;;;12853971;23;20033;-86
2021/11/18 18:06:19;;;;;;;14.30;5.05;;;;;;;;;;12824852;23;20059;-86
2021/11/18 18:11:22;;;;;;;8.68;3.47;;;;;;;;;;12883424;22;20026;-85
2021/11/18 18:16:37;;;;;;;8.35;3.03;;;;;;;;;;12882642;22;20031;-87
2021/11/18 18:21:43;;;;;;;11.70;3.88;;;;;;;;;;12884928;23;20016;-87
2021/11/18 18:32:22;;;;;;;10.27;3.95;;;;;;;;;;12717148;23;20010;-85
2021/11/18 18:37:31;;;;;;;11.55;4.72;;;;;;;;;;12841145;22;20045;-85
2021/11/18 18:42:40;;;;;;;16.35;6.32;;;;;;;;;;12877193;22;20013;-86
2021/11/18 18:48:01;;;;;;;9.70;4.03;;;;;;;;;;12889290;23;20016;-85
2021/11/18 18:53:01;;;;;;;;;;;;;;;;;;12851214;23;20108;-86
2021/11/18 18:58:14;;;;;;;9.73;3.90;;;;;;;;;;12848195;23;19907;-86
2021/11/18 19:03:21;;;;;;;10.60;4.32;;;;;;;;;;12844037;23;20016;-85
2021/11/18 19:08:40;;;;;;;13.95;5.55;;;;;;;;;;12811740;23;20444;-84
2021/11/18 19:13:46;;;;;;;9.15;4.25;;;;;;;;;;12857247;23;20068;-84
2021/11/18 19:19:22;;;;;;;10.88;4.10;;;;;;;;;;12890207;23;20012;-84
2021/11/18 19:24:24;;;;;;;18.15;7.47;;;;;;;;;;12854608;23;20008;-84
2021/11/18 19:35:54;;;;;;;12.18;5.50;;;;;;;;;;12880761;23;20448;-84
2021/11/18 19:41:07;;;;;;;7.65;4.15;;;;;;;;;;12666202;23;20024;-84
2021/11/18 19:46:16;;;;;;;8.38;4.50;;;;;;;;;;12838533;22;20080;-84
2021/11/18 19:51:34;;;;;;;10.00;4.50;;;;;;;;;;12891246;23;20011;-84
2021/11/18 19:56:41;;;;;;;9.52;4.25;;;;;;;;;;12875804;23;20009;-84
2021/11/18 20:01:59;;;;;;;12.88;5.22;;;;;;;;;;12828225;22;20020;-84
2021/11/18 20:07:01;;;;;;;14.05;6.32;;;;;;;;;;12870647;23;20041;-85
2021/11/18 20:12:12;;;;;;;8.60;4.50;;;;;;;;;;12897079;23;20421;-87
